»·PEaware :: N799DS KTRM-KRAL

N799DS :: KTRM-KRAL

FLIGHT INFORMATION

Flight Status: Arrived
Operator: Privately registered:
United States
More flights under this callsign
Pilot: Wolfgang B. (15069)
Aircraft: CESSNA 172 SKYHAWK
(C172)
More flights by this aircraft type
Origin: KTRM Desert Resorts Regl
United States
Destination: KRAL Riverside Mun
United States
More flights between these airports :: More routes between these airports
Route: +MECCA1 PSP PSP V388 PDZ
File this flight plan on PilotEdge
Remarks:
Altitude:
(Current/Filed)
10,000ft
Speed:
(Current/Filed)
115kts
Departed: 23-Apr-17 08:23 AM
Arrived: 23-Apr-17 09:16 AM
Distance/Time
Traveled:
67nm/0:53
Distance/Time
To Go:
Arrived

Flight Plot

Page will automatically refresh every two minutes.

Flight plan parsing failed; only flown route is shown


Map Options




Map Legend


Flown Route
Filed Route
Departure Airport
Arrival Airport
Navaid (VOR, NDB)
Fix

Horizontal Profiles

Position Reports

Time Latitude Longitude Heading Altitude Ground
Speed
23-Apr-17 08:12 33.634602 -116.165058 268 -107ft 0kts
23-Apr-17 08:13 33.634602 -116.165058 268 -107ft 0kts
23-Apr-17 08:14 33.634602 -116.165058 268 -107ft 0kts
23-Apr-17 08:15 33.634602 -116.165058 268 -107ft 0kts
23-Apr-17 08:17 33.634602 -116.165058 268 -107ft 0kts
23-Apr-17 08:18 33.634602 -116.165061 268 -107ft 1kts
23-Apr-17 08:19 33.634137 -116.169962 269 -103ft 18kts
23-Apr-17 08:20 33.630689 -116.170486 179 -105ft 0kts
23-Apr-17 08:21 33.630689 -116.170486 179 -105ft 0kts
23-Apr-17 08:22 33.630689 -116.170486 179 -105ft 0kts
23-Apr-17 08:23 33.630689 -116.170486 179 -105ft 0kts
23-Apr-17 08:24 33.629777 -116.170503 132 -106ft 4kts
23-Apr-17 08:25 33.616444 -116.158544 156 569ft 68kts
23-Apr-17 08:26 33.597864 -116.149791 157 1446ft 75kts
23-Apr-17 08:27 33.579942 -116.138387 142 2320ft 75kts
23-Apr-17 08:28 33.564543 -116.121245 133 3146ft 76kts
23-Apr-17 08:29 33.548494 -116.103864 137 3909ft 79kts
23-Apr-17 08:30 33.539877 -116.085087 359 4559ft 81kts
23-Apr-17 08:31 33.555647 -116.099826 318 5338ft 69kts
23-Apr-17 08:32 33.571174 -116.114369 325 5980ft 74kts
23-Apr-17 08:33 33.587485 -116.127265 324 6695ft 70kts
23-Apr-17 08:34 33.603731 -116.139946 315 7320ft 72kts
23-Apr-17 08:35 33.620292 -116.152729 322 7936ft 72kts
23-Apr-17 08:36 33.637277 -116.165922 318 8522ft 73kts
23-Apr-17 08:37 33.651119 -116.183053 306 9075ft 72kts
23-Apr-17 08:38 33.665139 -116.200582 312 9599ft 75kts
23-Apr-17 08:39 33.680296 -116.217837 306 10034ft 83kts
23-Apr-17 08:40 33.700639 -116.241535 310 10024ft 112kts
23-Apr-17 08:41 33.723680 -116.267465 310 10026ft 117kts
23-Apr-17 08:42 33.746619 -116.293098 310 10032ft 118kts
23-Apr-17 08:43 33.770724 -116.319988 310 10037ft 117kts
23-Apr-17 08:44 33.794340 -116.346342 310 10042ft 116kts
23-Apr-17 08:45 33.817893 -116.372638 310 10046ft 117kts
23-Apr-17 08:46 33.841321 -116.398817 310 10051ft 118kts
23-Apr-17 08:47 33.865782 -116.426199 309 10051ft 121kts
23-Apr-17 08:48 33.877087 -116.461947 282 10051ft 115kts
23-Apr-17 08:49 33.886488 -116.497860 281 10050ft 111kts
23-Apr-17 08:50 33.895465 -116.532882 281 10051ft 110kts
23-Apr-17 08:51 33.904434 -116.568141 281 10051ft 110kts
23-Apr-17 08:52 33.913350 -116.603286 281 10051ft 110kts
23-Apr-17 08:53 33.922087 -116.637757 281 10051ft 110kts
23-Apr-17 08:54 33.930585 -116.671363 281 10064ft 110kts
23-Apr-17 08:55 33.939407 -116.706307 281 10079ft 109kts
23-Apr-17 08:56 33.947381 -116.739396 267 10087ft 107kts
23-Apr-17 08:57 33.946531 -116.774743 265 10107ft 106kts
23-Apr-17 08:58 33.945469 -116.810186 265 10122ft 106kts
23-Apr-17 08:59 33.943280 -116.845528 259 10137ft 103kts
23-Apr-17 09:00 33.942444 -116.876601 278 9547ft 94kts
23-Apr-17 09:01 33.938330 -116.904771 266 9081ft 92kts
23-Apr-17 09:02 33.936123 -116.937773 260 8353ft 105kts
23-Apr-17 09:03 33.929891 -116.972027 264 7665ft 106kts
23-Apr-17 09:04 33.925641 -117.006808 263 7009ft 106kts
23-Apr-17 09:05 33.920200 -117.041912 260 6349ft 109kts
23-Apr-17 09:06 33.916845 -117.078955 257 5966ft 117kts
23-Apr-17 09:07 33.909891 -117.114692 252 5950ft 106kts
23-Apr-17 09:08 33.906551 -117.152189 261 5197ft 114kts
23-Apr-17 09:09 33.907320 -117.190864 267 4495ft 118kts
23-Apr-17 09:10 33.909609 -117.229475 278 4118ft 123kts
23-Apr-17 09:11 33.918614 -117.267082 275 3344ft 121kts
23-Apr-17 09:12 33.925853 -117.302536 282 3060ft 101kts
23-Apr-17 09:13 33.930948 -117.334751 285 2510ft 100kts
23-Apr-17 09:14 33.937117 -117.364182 280 2018ft 99kts
23-Apr-17 09:15 33.942166 -117.390699 282 1583ft 96kts
23-Apr-17 09:16 33.947091 -117.417005 283 1149ft 73kts
23-Apr-17 09:17 33.951303 -117.438617 280 808ft 57kts
23-Apr-17 09:18 33.951786 -117.443607 202 783ft 0kts
23-Apr-17 09:19 33.950623 -117.443921 207 777ft 13kts
23-Apr-17 09:20 33.949148 -117.444973 207 769ft 0kts
23-Apr-17 09:21 33.949148 -117.444973 207 769ft 0kts
23-Apr-17 09:22 33.949148 -117.444973 207 769ft 0kts
23-Apr-17 09:23 33.949148 -117.444973 207 769ft 0kts

Navigation Log

Ident Type
Flight plan parsing failed, navigation log unavailable